Inversion Research: Above Escarpment

*Note: All times are displayed in the local standard time of the station location.
**Rain - Equipment is designed to accurately record liquid precipitation; under conditions when precipitation is not in liquid form, the data displayed may not properly reflect rainfall values.

Date Max Temp
(°C)
Min Temp
(°C)
Avg Temp
(°C)
Rain (mm) Avg RH (%)
Sun, Dec 10, 2017 -1.6 -3.2 -2.4 - 82.0
Sat, Dec 09, 2017 1.4 -3.9 -0.8 - 72.2
Fri, Dec 08, 2017 -0.2 -4.4 -2.0 - 71.3
Thu, Dec 07, 2017 1.0 -3.6 -1.1 - 71.1
Wed, Dec 06, 2017 3.3 -1.0 1.2 - 63.1
Tue, Dec 05, 2017 11.2 0.5 7.3 - 81.0
Mon, Dec 04, 2017 11.2 -3.0 5.3 - 79.7
DateTime Avg Temp (°C) Rain (mm) RH (%)
Mon, Dec 11, 2017 02:00 -3.0 - 94.0
Mon, Dec 11, 2017 01:00 -2.1 - 83.3
Mon, Dec 11, 2017 00:00 -2.4 - 83.3
Sun, Dec 10, 2017 23:00 -2.7 - 83.5
Sun, Dec 10, 2017 22:00 -2.6 - 81.8
Sun, Dec 10, 2017 21:00 -2.4 - 80.0
Sun, Dec 10, 2017 20:00 -2.3 - 78.3
Sun, Dec 10, 2017 19:00 -2.3 - 75.3
Sun, Dec 10, 2017 18:00 -1.8 - 70.0
Sun, Dec 10, 2017 17:00 -1.8 - 72.8
Sun, Dec 10, 2017 16:00 -1.7 - 76.3
Sun, Dec 10, 2017 15:00 -1.6 - 79.0
Sun, Dec 10, 2017 14:00 -1.7 - 77.0
Sun, Dec 10, 2017 13:00 -1.8 - 76.8
Sun, Dec 10, 2017 12:00 -1.9 - 74.3
Sun, Dec 10, 2017 11:00 -2.2 - 72.5
Sun, Dec 10, 2017 10:00 -2.6 - 74.8
Sun, Dec 10, 2017 09:00 -2.9 - 76.5
Sun, Dec 10, 2017 08:00 -3.0 - 77.3
Sun, Dec 10, 2017 07:00 -3.0 - 87.3
Sun, Dec 10, 2017 06:00 -3.1 - 91.0
Sun, Dec 10, 2017 05:00 -2.6 - 94.0
Sun, Dec 10, 2017 04:00 -2.6 - 96.3
Sun, Dec 10, 2017 03:00 -2.5 - 95.3
Sun, Dec 10, 2017 02:00 -2.7 - 97.8
Sun, Dec 10, 2017 01:00 -2.5 - 97.3
Sun, Dec 10, 2017 00:00 -2.6 - 98.0
Sat, Dec 09, 2017 23:00 -3.6 - 97.8
Sat, Dec 09, 2017 22:00 -3.0 - 95.5
Sat, Dec 09, 2017 21:00 -2.2 - 90.0
Sat, Dec 09, 2017 20:00 -1.1 - 78.5
Sat, Dec 09, 2017 19:00 -0.5 - 69.5
Sat, Dec 09, 2017 18:00 -0.5 - 68.8
Sat, Dec 09, 2017 17:00 0.2 - 64.8
Sat, Dec 09, 2017 16:00 0.5 - 61.3
Sat, Dec 09, 2017 15:00 0.6 - 59.8
Sat, Dec 09, 2017 14:00 0.7 - 59.3
Sat, Dec 09, 2017 13:00 0.3 - 60.3
Sat, Dec 09, 2017 12:00 1.0 - 58.3
Sat, Dec 09, 2017 11:00 0.9 - 61.5
Sat, Dec 09, 2017 10:00 0.2 - 70.8
Sat, Dec 09, 2017 09:00 -1.3 - 80.0
Sat, Dec 09, 2017 08:00 -0.9 - 79.0
Sat, Dec 09, 2017 07:00 -0.6 - 80.3
Sat, Dec 09, 2017 06:00 -0.5 - 77.3
Sat, Dec 09, 2017 05:00 -1.1 - 67.5
Sat, Dec 09, 2017 04:00 -1.1 - 63.3
Sat, Dec 09, 2017 03:00 -1.3 - 64.3


asterix Register now to access more data! asterix